Main page
METAR-TAF:

METAR-TAF

Airports :

Castres–Mazamet Airport

Castres, France

latitude: 43-33-25N, longitude: 2-17-21E, elevation: 239 m

Current weather observation

The report was made 37 minutes ago, at 00:30 UTC
Wind 2 kt from the East/Southeast
Temperature 18°C
Humidity 77%
Pressure 1016 hPa
Visibility 10 km or more
no clouds below 1500 m and no cumulonimbus

METAR: LFCK 150030Z AUTO 12002KT CAVOK 18/14 Q1016

Time: 03:07 (01:07 UTC)

Forecast

The report was made 8 hours and 7 minutes ago, at 17:00 UTC
Forecast valid from 14 at 18 UTC to 15 at 03 UTC
Wind 8 kt from the West/Northwest
Visibility 10 km or more
no clouds below 1500 m and no cumulonimbus
Becoming
from 14 at 22 UTC to 14 at 24 UTC
Wind 3 kt from variable directions

TAF: LFCK 141700Z 1418/1503 29008KT CAVOK BECMG 1422/1424 VRB03KT

Weather observations and forecasts of more than 4000 airports (METAR and TAF reports).

The available stations are represented by yellow and red dots on the map.

Hover mouse over dot to see the name of the station.

Then click to see weather observations and forecasts.

To change the map : click on the green buttons with a black cross to zoom in, on the green button with a dash to zoom out, or on the green arrows for adjacent maps.


METAR-TAF: